LICALICD

Guest
Details From LICA - Lamezia Terme
To LICD - LAMPEDUSA
Flight Number -
Tags generated
Created
Modified
Stats Distance 275 nm / 509 km
Max Altitude 34,000 ft / 10,363 m
Waypoints 5
Social Downloads 1
Likes 0
Share VATSIM

Download

Looking for another format? Having issues loading an existing format? Contact us
Advertisement - Login to hide

Notes

Basic altitude profile: - Ascent Rate: 2500ft/min - Ascent Speed: 250kts - Cruise Altitude: 35000ft - Cruise Speed: 420kts - Descent Rate: 1500ft/min - Descent Speed: 250kts Options: - Use NATs: yes - Use PACOTS: yes - Use low airways: yes - Use high airways: yes

Route

LICA NOTRI UL137 NELDA UN982 DIRKA LICD

ID Type Via Altitude Latitude Longitude Leg Dist Tot Dist Heading (true) Name
O LICA APT - 0 ft / 0 m 38.90539˚ 16.24227˚ - 0 nm - Lamezia Terme
NOTRI FIX - 34,000 ft / 10,363 m 37.45611˚ 14.96944˚ 105 nm 105 nm 215° / 214° -
NELDA FIX UL137 (AWY-HI) 26,500 ft / 8,077 m 36.86278˚ 14.39278˚ 45 nm 150 nm 218° / 218° -
DIRKA FIX UN982 (AWY-HI) 20,800 ft / 6,340 m 36.50000˚ 14.31000˚ 22 nm 172 nm 190° / 190° -
O LICD APT - 0 ft / 0 m 35.49797˚ 12.61808˚ 101 nm 274 nm 234° / 233° LAMPEDUSA

Altitude Profile

Advertisement - Login to hide

Weather


0- 5 10 15 20 25 30 35+ Temperature / ° C

Clouds and Precipitation
Forecast for 2017-12-17 18:00 UTC. Updated an hour ago

Ground ~20,000 ft ~40,000 ft Winds

LICA

Details ICAO LICA (SUF)
Name Lamezia Terme
Region Italy
Timezone Europe/Rome (UTC+1.0)
Stats Elevation 39 ft / 12 m (AMSL)
Location 38.905394° 16.242271°
Runways 1
Magnetic Variation 3.495° E

METAR

LICA 171750Z 25015G29KT 220V300 7000 -TSRA FEW015CB BKN030 10/04 Q1016

Decode

TAF

TAF LICA 171700Z 1718/1818 27015KT 9999 SCT030 BECMG 1718/1720 VRB05KT TEMPO 1718/1805 4000 SHRA BECMG 1809/1811 27010KT

Decode

Departure Runways

ID Width Length Bearing (true) Bearing (mag) Surface Threshold Offset Overrun Length
10 148 ft / 45 m 7,858 ft / 2,395 m 98.54° 95.05° Asphalt 348 ft / 106 m 0 ft / 0 m
28 148 ft / 45 m 7,858 ft / 2,395 m 278.55° 275.06° Asphalt 351 ft / 107 m 0 ft / 0 m

LICD

Details ICAO LICD (LMP)
Name LAMPEDUSA
Region Italy
Timezone Europe/Rome (UTC+1.0)
Stats Elevation 70 ft / 21 m (AMSL)
Location 35.497966° 12.618077°
Runways 1
Magnetic Variation 2.715° E

METAR

LICD 171750Z 30015KT 9999 FEW030 13/05 Q1020

Decode

TAF

TAF LICD 171700Z 1718/1818 33018G30KT 9999 SCT030 TEMPO 1800/1809 SHRA BECMG 1810/1812 33012KT

Decode

Destination Runways

ID Width Length Bearing (true) Bearing (mag) Surface Threshold Offset Overrun Length
08 148 ft / 45 m 5,897 ft / 1,797 m 80.57° 77.85° Asphalt 0 ft / 0 m 0 ft / 0 m
26 148 ft / 45 m 5,897 ft / 1,797 m 260.59° 257.87° Asphalt 0 ft / 0 m 0 ft / 0 m

Approach Navaids

Runway Type Ident Frequency Range Bearing (true) Bearing (mag) Slope Elevation
26 Localiser ILMA 111.30 MHz 20 nm / 37 km 260.60° 257.88° - 70 ft / 21 m (AMSL)
26 DME ILMA 111.30 MHz 25 nm / 46 km - - - 70 ft / 21 m (AMSL)

Popular Alternatives